Economy, Indiana
Current Conditions -  °F | °C
As of 12:53 AM on Saturday 20 Dec 2014 (Local Time) from KMIE Reporting Station
Haze Haze  
Wind Chill: 29°   Ceiling: 2000
Heat Index: 29°   Visibility: 5mi
Dew Point: 26°   Wind: 0mph
Humidity: 89%   Direction: NA
Pressure: 30.25"   Gusts: NA
Location:  39.98°N, 85.09°W
Report Text: KMIE 200553Z AUTO 00000KT 5SM BR OVC020 M02/M03 A3025 RMK AO2 SLP251 T10171033 11006 21017 56004 $
Loading
Personal Weather Stations






























Interactive Weather Map New forecast layout! Learn more

10-Day Weather Forecast

Advertisements
Track Severe Weather on mobile